Time;durP1;ratioP1;P1;durP2;ratioP2;P2;SDS_P1;SDS_P2;PMS_P1;PMS_P2;Temp;Humidity;BMP_temperature;BMP_pressure;BME280_temperature;BME280_humidity;BME280_pressure;Samples;Min_cycle;Max_cycle;Signal;HPM_P1;HPM_P2
2023/08/13 00:02:06;;;;;;;4.67;2.50;;;26.00;48.80;;;;;;5074578;28;20476;-51
2023/08/13 00:04:32;;;;;;;3.90;2.77;;;25.90;48.50;;;;;;5074493;28;20793;-55
2023/08/13 00:06:59;;;;;;;3.17;2.80;;;25.90;48.50;;;;;;5074488;28;20407;-55
2023/08/13 00:09:26;;;;;;;6.10;3.43;;;25.80;48.80;;;;;;5074263;28;20168;-51
2023/08/13 00:11:53;;;;;;;3.93;2.33;;;25.80;49.00;;;;;;5074532;28;20539;-51
2023/08/13 00:14:19;;;;;;;2.70;2.37;;;25.80;49.10;;;;;;5074457;28;20403;-53
2023/08/13 00:16:45;;;;;;;3.60;3.00;;;25.80;49.30;;;;;;5074651;28;20616;-50
2023/08/13 00:19:11;;;;;;;6.20;3.10;;;25.80;49.50;;;;;;5073975;28;20473;-54
2023/08/13 00:21:37;;;;;;;4.53;3.27;;;25.70;49.50;;;;;;5074236;28;20199;-55
2023/08/13 00:24:03;;;;;;;8.70;3.20;;;25.70;49.40;;;;;;5074298;28;20482;-51
2023/08/13 00:26:29;;;;;;;5.67;2.87;;;25.70;49.40;;;;;;5074151;28;20874;-55
2023/08/13 00:28:55;;;;;;;3.73;2.20;;;25.70;49.50;;;;;;5074053;28;20407;-55
2023/08/13 00:31:21;;;;;;;3.13;2.30;;;25.70;49.50;;;;;;5072679;28;20474;-50
2023/08/13 00:33:47;;;;;;;6.00;3.00;;;25.70;49.50;;;;;;5073890;28;20179;-55
2023/08/13 00:36:13;;;;;;;2.60;2.03;;;25.70;49.20;;;;;;5073972;28;20403;-55
2023/08/13 00:38:39;;;;;;;4.70;3.23;;;25.60;49.20;;;;;;5073804;28;20231;-52
2023/08/13 00:41:05;;;;;;;5.80;2.90;;;25.60;49.30;;;;;;5073889;28;20219;-52
2023/08/13 00:43:31;;;;;;;4.03;3.00;;;25.60;49.50;;;;;;5073780;28;20407;-52
2023/08/13 00:45:58;;;;;;;3.40;3.10;;;25.60;49.50;;;;;;5073779;28;20410;-50
2023/08/13 00:48:24;;;;;;;3.83;2.43;;;25.60;49.50;;;;;;5073709;28;20403;-54
2023/08/13 00:50:50;;;;;;;5.63;2.30;;;25.50;49.50;;;;;;5072603;28;20484;-54
2023/08/13 00:53:17;;;;;;;3.70;3.17;;;25.60;49.50;;;;;;5073714;28;20548;-51
2023/08/13 00:55:43;;;;;;;3.20;2.67;;;25.60;49.40;;;;;;5073734;28;20403;-49
2023/08/13 00:58:09;;;;;;;3.47;3.17;;;25.60;50.10;;;;;;5073408;28;21019;-55
2023/08/13 01:00:35;;;;;;;4.83;3.03;;;25.50;49.50;;;;;;5073234;28;20399;-51
2023/08/13 01:03:01;;;;;;;4.40;3.00;;;25.50;49.60;;;;;;5073380;28;20399;-55
2023/08/13 01:05:47;;;;;;;4.23;2.47;;;25.50;49.60;;;;;;5073622;28;20413;-53
2023/08/13 01:08:55;;;;;;;6.43;3.37;;;25.50;49.50;;;;;;5073237;28;20403;-50
2023/08/13 01:11:37;;;;;;;3.90;2.63;;;25.40;49.30;;;;;;5072955;28;21011;-49
2023/08/13 01:14:17;;;;;;;2.70;2.20;;;25.40;49.70;;;;;;5073624;28;20395;-52
2023/08/13 01:16:43;;;;;;;4.73;2.43;;;25.40;49.70;;;;;;5073192;28;20432;-50
2023/08/13 01:19:13;;;;;;;8.13;3.30;;;25.30;49.80;;;;;;5072971;28;20523;-52
2023/08/13 01:21:39;;;;;;;6.93;3.57;;;25.30;49.70;;;;;;5072833;28;20960;-53
2023/08/13 01:24:05;;;;;;;3.40;2.53;;;25.20;49.80;;;;;;5073212;28;20406;-51
2023/08/13 01:26:58;;;;;;;4.20;2.93;;;25.20;49.90;;;;;;5072959;28;20391;-51
2023/08/13 01:29:39;;;;;;;3.20;2.90;;;25.20;50.20;;;;;;5072450;28;20783;-52
2023/08/13 01:32:09;;;;;;;3.57;2.90;;;25.20;50.30;;;;;;5072775;28;20419;-54
2023/08/13 01:34:36;;;;;;;6.47;3.20;;;25.10;50.40;;;;;;5071582;28;20433;-52
2023/08/13 01:37:03;;;;;;;3.27;2.97;;;25.10;50.30;;;;;;5072932;28;20398;-51
2023/08/13 01:39:29;;;;;;;4.63;2.80;;;25.10;50.40;;;;;;5072377;28;20478;-54
2023/08/13 01:41:57;;;;;;;4.77;3.53;;;25.10;50.50;;;;;;5072329;28;20504;-51
2023/08/13 01:44:23;;;;;;;4.70;3.30;;;25.10;50.60;;;;;;5072476;28;20490;-54
2023/08/13 01:46:49;;;;;;;5.37;3.63;;;25.10;50.50;;;;;;5072449;28;20502;-52
2023/08/13 01:49:15;;;;;;;3.80;3.17;;;25.10;50.60;;;;;;5072690;28;20230;-54
2023/08/13 01:51:41;;;;;;;4.47;2.90;;;25.10;50.60;;;;;;5072541;28;20422;-55
2023/08/13 01:54:07;;;;;;;5.13;2.93;;;25.10;50.70;;;;;;5072409;28;20807;-51
2023/08/13 01:56:32;;;;;;;3.57;2.97;;;25.10;50.80;;;;;;5072470;28;20525;-51
2023/08/13 01:58:58;;;;;;;4.30;2.70;;;25.20;50.90;;;;;;5072296;28;20453;-53
2023/08/13 02:01:24;;;;;;;3.27;2.97;;;25.20;51.10;;;;;;5072141;28;20196;-54
2023/08/13 02:03:50;;;;;;;3.57;2.73;;;25.30;51.10;;;;;;5072418;28;20168;-52
2023/08/13 02:06:16;;;;;;;3.97;3.57;;;25.30;51.10;;;;;;5072349;28;20165;-54
2023/08/13 02:08:42;;;;;;;5.83;3.40;;;25.30;50.90;;;;;;5072212;28;20955;-53
2023/08/13 02:11:08;;;;;;;3.93;2.40;;;25.40;50.90;;;;;;5072012;28;20476;-52
2023/08/13 02:13:34;;;;;;;6.83;2.73;;;25.40;51.10;;;;;;5072555;28;20214;-53
2023/08/13 02:16:06;;;;;;;5.73;3.30;;;25.40;51.00;;;;;;5072178;28;20180;-53
2023/08/13 02:18:31;;;;;;;5.43;3.20;;;25.50;51.10;;;;;;5071987;28;20204;-51
2023/08/13 02:20:57;;;;;;;4.13;3.33;;;25.50;51.20;;;;;;5072003;28;20419;-54
2023/08/13 02:23:23;;;;;;;7.00;3.27;;;25.50;51.10;;;;;;5072156;28;20471;-52
2023/08/13 02:25:49;;;;;;;3.80;2.80;;;25.50;51.10;;;;;;5072119;28;20414;-51
2023/08/13 02:28:15;;;;;;;4.00;3.57;;;25.50;51.10;;;;;;5072242;28;20583;-54
2023/08/13 02:30:41;;;;;;;4.60;3.30;;;25.60;51.20;;;;;;5071806;28;20422;-54
2023/08/13 02:33:07;;;;;;;3.80;3.20;;;25.60;51.20;;;;;;5072104;28;20226;-51
2023/08/13 02:35:33;;;;;;;4.10;3.40;;;25.60;51.30;;;;;;5072349;28;20176;-52
2023/08/13 02:37:58;;;;;;;4.00;3.40;;;25.60;51.20;;;;;;5071921;28;20715;-55
2023/08/13 02:40:24;;;;;;;4.50;3.60;;;25.60;51.10;;;;;;5071582;28;20171;-54
2023/08/13 02:42:50;;;;;;;6.43;3.63;;;25.60;51.10;;;;;;5071897;28;20168;-51
2023/08/13 02:45:16;;;;;;;3.40;3.07;;;25.70;51.10;;;;;;5071948;28;20167;-52
2023/08/13 02:47:42;;;;;;;6.13;2.97;;;25.70;51.00;;;;;;5071830;28;20172;-53
2023/08/13 02:50:08;;;;;;;8.30;3.30;;;25.70;50.90;;;;;;5071818;28;20429;-53
2023/08/13 02:52:34;;;;;;;3.40;3.10;;;25.70;51.10;;;;;;5072064;28;20599;-50
2023/08/13 02:54:59;;;;;;;4.60;3.00;;;25.60;51.10;;;;;;5073758;28;20444;-53
2023/08/13 02:57:25;;;;;;;4.70;3.10;;;25.60;51.10;;;;;;5075978;28;20739;-50
2023/08/13 02:59:51;;;;;;;11.63;3.77;;;25.60;51.00;;;;;;5075664;28;20180;-51
2023/08/13 03:02:17;;;;;;;5.30;3.47;;;25.60;51.10;;;;;;5075695;28;20203;-55
2023/08/13 03:04:43;;;;;;;5.97;2.97;;;25.70;51.20;;;;;;5076037;28;20173;-52
2023/08/13 03:07:08;;;;;;;3.83;2.80;;;25.70;51.20;;;;;;5075620;28;20176;-51
2023/08/13 03:09:34;;;;;;;6.13;3.73;;;25.70;51.30;;;;;;5075499;28;20182;-55
2023/08/13 03:12:00;;;;;;;7.07;3.87;;;25.60;51.40;;;;;;5075434;28;20275;-56
2023/08/13 03:14:26;;;;;;;5.30;3.33;;;25.60;51.50;;;;;;5075552;28;20704;-52
2023/08/13 03:16:52;;;;;;;4.47;3.67;;;25.60;51.50;;;;;;5075500;28;20917;-52
2023/08/13 03:19:17;;;;;;;3.90;3.43;;;25.60;51.50;;;;;;5075286;28;20450;-52
2023/08/13 03:21:43;;;;;;;3.47;2.87;;;25.60;51.60;;;;;;5075589;28;20219;-51
2023/08/13 03:24:09;;;;;;;3.80;3.20;;;25.70;51.60;;;;;;5075615;28;20652;-53
2023/08/13 03:26:35;;;;;;;5.40;3.50;;;25.70;51.60;;;;;;5075187;28;20746;-55
2023/08/13 03:29:01;;;;;;;4.37;3.97;;;25.70;51.90;;;;;;5075210;28;20199;-49
2023/08/13 03:31:26;;;;;;;4.30;3.50;;;25.70;51.40;;;;;;5075177;28;20215;-56
2023/08/13 03:33:52;;;;;;;3.40;3.03;;;25.70;51.30;;;;;;5075203;28;20633;-55
2023/08/13 03:36:18;;;;;;;4.13;3.30;;;25.70;51.30;;;;;;5075192;28;20183;-51
2023/08/13 03:38:44;;;;;;;4.30;3.00;;;25.60;51.40;;;;;;5074988;28;20295;-53
2023/08/13 03:41:10;;;;;;;6.33;3.20;;;25.60;51.50;;;;;;5074671;28;20196;-52
2023/08/13 03:43:35;;;;;;;3.87;3.07;;;25.60;51.50;;;;;;5074964;28;20183;-56
2023/08/13 03:46:04;;;;;;;3.83;2.83;;;25.60;51.50;;;;;;5074976;28;20169;-54
2023/08/13 03:48:30;;;;;;;3.70;3.10;;;25.50;51.60;;;;;;5075235;28;20185;-52
2023/08/13 03:50:56;;;;;;;3.90;3.40;;;25.50;51.60;;;;;;5074545;28;20442;-56
2023/08/13 03:53:24;;;;;;;3.63;3.33;;;25.50;51.70;;;;;;5074980;28;20212;-57
2023/08/13 03:55:51;;;;;;;3.83;2.93;;;25.50;51.70;;;;;;5074744;28;20256;-52
2023/08/13 03:58:17;;;;;;;4.00;2.63;;;25.60;51.70;;;;;;5074647;28;20455;-55
2023/08/13 04:00:43;;;;;;;3.10;2.80;;;25.50;51.80;;;;;;5074370;28;20491;-50
2023/08/13 04:03:09;;;;;;;3.73;2.87;;;25.60;51.90;;;;;;5074943;28;20434;-50
2023/08/13 04:05:35;;;;;;;4.43;3.07;;;25.60;51.90;;;;;;5074361;28;20405;-55
2023/08/13 04:08:02;;;;;;;3.50;3.07;;;25.60;51.80;;;;;;5074659;28;20406;-56
2023/08/13 04:10:28;;;;;;;3.57;3.20;;;25.70;51.70;;;;;;5074085;28;20488;-51
2023/08/13 04:13:00;;;;;;;3.57;2.90;;;25.60;51.70;;;;;;5074702;28;20439;-55
2023/08/13 04:15:27;;;;;;;5.73;3.67;;;25.60;51.80;;;;;;5074729;28;20395;-52
2023/08/13 04:17:52;;;;;;;5.40;3.50;;;25.60;52.00;;;;;;5074321;28;20458;-56
2023/08/13 04:20:18;;;;;;;4.60;3.33;;;25.60;52.20;;;;;;5073949;28;20407;-56
2023/08/13 04:22:45;;;;;;;6.40;3.83;;;25.60;52.20;;;;;;5074200;28;20172;-49
2023/08/13 04:25:11;;;;;;;3.73;3.17;;;25.60;52.20;;;;;;5073319;28;20898;-50
2023/08/13 04:27:37;;;;;;;5.53;2.83;;;25.60;52.20;;;;;;5074373;28;20407;-53
2023/08/13 04:30:04;;;;;;;3.50;3.20;;;25.60;52.30;;;;;;5074032;28;20464;-52
2023/08/13 04:32:31;;;;;;;4.60;4.20;;;25.60;52.40;;;;;;5074035;28;20423;-51
2023/08/13 04:34:58;;;;;;;5.23;2.90;;;25.70;52.50;;;;;;5073955;28;20399;-51
2023/08/13 04:37:24;;;;;;;3.70;3.07;;;25.60;52.50;;;;;;5074157;28;20430;-54
2023/08/13 04:39:49;;;;;;;4.20;3.20;;;25.60;52.60;;;;;;5073725;28;20895;-50
2023/08/13 04:42:15;;;;;;;5.20;3.57;;;25.70;52.50;;;;;;5074016;28;20224;-53
2023/08/13 04:44:41;;;;;;;4.80;3.70;;;25.70;52.40;;;;;;5073922;28;20208;-54
2023/08/13 04:47:07;;;;;;;5.50;3.53;;;25.70;52.40;;;;;;5074165;28;20434;-50
2023/08/13 04:49:33;;;;;;;3.57;3.27;;;25.70;52.50;;;;;;5073520;28;20640;-55
2023/08/13 04:51:58;;;;;;;5.63;3.57;;;25.70;52.60;;;;;;5073621;28;20224;-52
2023/08/13 04:54:24;;;;;;;4.60;3.33;;;25.60;52.50;;;;;;5072337;28;20656;-55
2023/08/13 04:56:50;;;;;;;4.60;3.30;;;25.70;52.40;;;;;;5073582;28;20617;-50
2023/08/13 04:59:16;;;;;;;2.80;2.50;;;25.60;52.20;;;;;;5073528;28;20210;-57
2023/08/13 05:01:42;;;;;;;7.57;3.20;;;25.60;52.10;;;;;;5073423;28;20619;-57
2023/08/13 05:04:07;;;;;;;5.10;3.80;;;25.60;52.30;;;;;;5073771;28;20263;-51
2023/08/13 05:06:33;;;;;;;8.00;3.63;;;25.50;52.40;;;;;;5073295;28;20251;-55
2023/08/13 05:08:59;;;;;;;3.47;3.17;;;25.60;52.60;;;;;;5073589;28;20191;-51
2023/08/13 05:11:25;;;;;;;4.37;3.97;;;25.60;53.50;;;;;;5073120;28;20688;-55
2023/08/13 05:13:50;;;;;;;3.67;3.37;;;25.70;52.90;;;;;;5073342;28;20179;-55
2023/08/13 05:16:16;;;;;;;4.30;3.70;;;25.70;53.00;;;;;;5072749;28;20263;-52
2023/08/13 05:18:42;;;;;;;4.90;4.10;;;25.70;52.90;;;;;;5073028;28;20200;-56
2023/08/13 05:21:08;;;;;;;4.77;4.20;;;25.80;52.80;;;;;;5072769;28;20422;-52
2023/08/13 05:23:34;;;;;;;3.90;3.20;;;25.80;52.80;;;;;;5073098;28;20253;-57
2023/08/13 05:26:00;;;;;;;3.63;3.03;;;25.90;52.60;;;;;;5073192;28;20176;-50
2023/08/13 05:28:26;;;;;;;5.10;3.53;;;25.90;52.60;;;;;;5073000;28;20966;-51
2023/08/13 05:30:51;;;;;;;4.63;3.60;;;25.90;52.60;;;;;;5072700;28;20192;-55
2023/08/13 05:33:17;;;;;;;6.87;3.90;;;26.00;53.00;;;;;;5072800;28;20279;-52
2023/08/13 05:35:43;;;;;;;5.87;3.57;;;26.00;53.00;;;;;;5072673;28;20173;-51
2023/08/13 05:38:09;;;;;;;5.67;3.30;;;26.10;53.00;;;;;;5072963;28;20211;-54
2023/08/13 05:40:35;;;;;;;10.23;3.97;;;26.10;52.90;;;;;;5072791;28;20560;-50
2023/08/13 05:43:01;;;;;;;5.37;4.00;;;26.20;52.80;;;;;;5072656;28;20415;-53
2023/08/13 05:45:26;;;;;;;7.80;4.00;;;26.20;52.70;;;;;;5072670;28;20173;-55
2023/08/13 05:47:52;;;;;;;3.87;3.40;;;26.20;52.30;;;;;;5072665;28;20408;-55
2023/08/13 05:50:18;;;;;;;6.00;3.80;;;26.30;52.10;;;;;;5072281;28;20714;-52
2023/08/13 05:52:44;;;;;;;5.80;3.20;;;26.30;52.30;;;;;;5072724;28;20568;-52
2023/08/13 05:55:10;;;;;;;3.93;3.40;;;26.40;52.10;;;;;;5072462;28;20430;-55
2023/08/13 05:57:36;;;;;;;4.50;2.90;;;26.40;51.70;;;;;;5072391;28;20415;-52
2023/08/13 06:00:07;;;;;;;3.37;2.97;;;26.50;51.40;;;;;;5072248;28;20168;-51
2023/08/13 06:02:33;;;;;;;3.87;2.87;;;26.60;51.50;;;;;;5072420;28;20223;-57
2023/08/13 06:04:59;;;;;;;3.97;3.57;;;26.80;51.10;;;;;;5072287;28;20411;-55
2023/08/13 06:07:25;;;;;;;4.00;3.60;;;26.80;50.60;;;;;;5072542;28;20188;-51
2023/08/13 06:09:51;;;;;;;4.03;3.43;;;26.90;50.30;;;;;;5072119;28;20544;-53
2023/08/13 06:12:16;;;;;;;3.77;3.20;;;27.00;51.20;;;;;;5072252;28;20189;-54
2023/08/13 06:14:42;;;;;;;3.80;2.90;;;27.10;50.60;;;;;;5072193;28;20173;-51
2023/08/13 06:17:09;;;;;;;5.20;3.20;;;27.20;50.10;;;;;;5072176;28;20199;-52
2023/08/13 06:19:35;;;;;;;3.70;3.33;;;27.10;50.00;;;;;;5071828;28;20450;-54
2023/08/13 06:22:01;;;;;;;4.73;3.50;;;27.20;50.20;;;;;;5072102;28;20438;-51
2023/08/13 06:24:27;;;;;;;4.13;3.60;;;27.10;49.60;;;;;;5072115;28;20215;-52
2023/08/13 06:26:53;;;;;;;4.20;3.33;;;27.10;49.80;;;;;;5072115;28;20172;-57
2023/08/13 06:29:18;;;;;;;3.57;3.27;;;27.10;50.30;;;;;;5070948;28;20172;-52
2023/08/13 06:31:44;;;;;;;4.93;3.00;;;27.20;50.40;;;;;;5071960;28;20192;-52
2023/08/13 06:34:10;;;;;;;5.03;3.23;;;27.20;50.30;;;;;;5072026;28;20176;-52
2023/08/13 06:36:36;;;;;;;4.70;3.50;;;27.20;50.00;;;;;;5071972;28;20187;-56
2023/08/13 06:39:02;;;;;;;4.27;3.60;;;27.30;50.10;;;;;;5070645;28;20455;-52
2023/08/13 06:41:28;;;;;;;3.70;3.40;;;27.40;49.80;;;;;;5071904;28;20223;-55
2023/08/13 06:43:54;;;;;;;4.20;3.07;;;27.50;49.70;;;;;;5072231;28;20914;-52
2023/08/13 06:46:20;;;;;;;4.40;3.53;;;27.50;49.20;;;;;;5072200;28;20628;-52
2023/08/13 06:48:45;;;;;;;4.23;3.00;;;27.50;49.70;;;;;;5072033;28;20418;-54
2023/08/13 06:51:11;;;;;;;7.27;3.40;;;27.60;50.40;;;;;;5071620;28;20605;-57
2023/08/13 06:53:37;;;;;;;4.13;2.93;;;27.70;50.40;;;;;;5071742;28;20192;-51
2023/08/13 06:56:03;;;;;;;3.20;2.90;;;27.80;49.90;;;;;;5071814;28;20415;-50
2023/08/13 06:58:29;;;;;;;3.67;2.90;;;27.90;50.10;;;;;;5071987;28;20457;-54
2023/08/13 07:00:55;;;;;;;4.27;3.50;;;28.00;50.20;;;;;;5071400;28;20438;-55
2023/08/13 07:03:21;;;;;;;3.43;3.07;;;28.00;50.20;;;;;;5071637;28;20411;-52
2023/08/13 07:05:47;;;;;;;4.50;3.70;;;28.10;49.90;;;;;;5071950;28;20180;-53
2023/08/13 07:08:13;;;;;;;4.03;3.50;;;28.10;50.80;;;;;;5071693;28;20571;-55
2023/08/13 07:10:40;;;;;;;4.33;2.90;;;28.20;49.40;;;;;;5071376;28;20200;-54
2023/08/13 07:13:06;;;;;;;5.73;4.10;;;28.30;49.40;;;;;;5071753;28;20814;-51
2023/08/13 07:15:32;;;;;;;3.73;3.40;;;28.30;48.90;;;;;;5071640;28;20505;-53
2023/08/13 07:17:58;;;;;;;3.80;3.40;;;28.30;48.00;;;;;;5071683;28;21025;-52
2023/08/13 07:20:24;;;;;;;4.20;3.30;;;28.30;48.10;;;;;;5071308;28;20890;-52
2023/08/13 07:22:50;;;;;;;4.77;3.90;;;28.20;47.80;;;;;;5071542;28;20465;-56
2023/08/13 07:25:16;;;;;;;4.47;3.93;;;28.20;48.30;;;;;;5071574;28;20410;-51
2023/08/13 07:27:42;;;;;;;4.40;3.50;;;28.20;48.20;;;;;;5071543;28;20169;-57
2023/08/13 07:30:10;;;;;;;4.90;4.00;;;28.20;49.30;;;;;;5071303;28;20544;-52
2023/08/13 07:32:37;;;;;;;4.13;3.73;;;28.30;48.80;;;;;;5071328;28;20494;-51
2023/08/13 07:35:06;;;;;;;4.70;3.73;;;28.30;48.90;;;;;;5071480;28;20447;-56
2023/08/13 07:37:32;;;;;;;4.93;3.40;;;28.40;48.00;;;;;;5071511;28;20411;-52
2023/08/13 07:39:59;;;;;;;4.03;3.63;;;28.30;47.60;;;;;;5072802;28;20456;-51
2023/08/13 07:42:24;;;;;;;5.83;3.70;;;28.30;46.90;;;;;;5074910;28;20426;-55
2023/08/13 07:44:50;;;;;;;4.37;3.70;;;28.20;46.90;;;;;;5074829;28;20409;-52
2023/08/13 07:47:17;;;;;;;4.20;3.80;;;28.20;46.90;;;;;;5075147;28;20418;-50
2023/08/13 07:49:43;;;;;;;3.80;3.43;;;28.20;48.40;;;;;;5074657;28;20180;-54
2023/08/13 07:52:08;;;;;;;6.87;3.80;;;28.30;47.80;;;;;;5074841;28;20500;-52
2023/08/13 07:54:36;;;;;;;3.50;3.20;;;28.30;48.10;;;;;;5074736;28;20847;-53
2023/08/13 07:57:04;;;;;;;3.30;2.93;;;28.40;48.20;;;;;;5074676;28;20655;-51
2023/08/13 07:59:29;;;;;;;5.57;3.40;;;28.50;48.00;;;;;;5074172;28;20539;-55
2023/08/13 08:01:55;;;;;;;5.97;4.13;;;28.60;48.20;;;;;;5074809;28;20459;-50
2023/08/13 08:04:21;;;;;;;5.50;3.27;;;28.70;48.40;;;;;;5074782;28;20183;-52
2023/08/13 08:06:48;;;;;;;4.37;3.47;;;28.90;48.50;;;;;;5074642;28;20403;-56
2023/08/13 08:09:13;;;;;;;3.90;3.50;;;29.10;48.70;;;;;;5074348;28;20783;-51
2023/08/13 08:11:39;;;;;;;4.37;3.97;;;29.30;48.20;;;;;;5074463;28;20482;-52
2023/08/13 08:14:05;;;;;;;3.57;3.27;;;29.30;47.60;;;;;;5074341;28;20229;-56
2023/08/13 08:16:31;;;;;;;4.03;3.63;;;29.40;47.30;;;;;;5074709;28;20225;-50
2023/08/13 08:18:57;;;;;;;3.90;3.50;;;29.40;47.30;;;;;;5074484;28;20497;-56
2023/08/13 08:21:23;;;;;;;4.70;4.00;;;29.50;47.20;;;;;;5074410;28;20244;-53
2023/08/13 08:23:49;;;;;;;4.37;3.50;;;29.60;45.10;;;;;;5072962;28;20644;-51
2023/08/13 08:26:14;;;;;;;5.27;4.70;;;29.60;45.20;;;;;;5074540;28;20175;-51
2023/08/13 08:28:40;;;;;;;4.87;3.80;;;29.70;45.60;;;;;;5074229;28;20595;-55
2023/08/13 08:31:06;;;;;;;3.83;3.37;;;29.70;46.30;;;;;;5073967;28;20239;-52
2023/08/13 08:33:32;;;;;;;3.87;3.47;;;29.70;45.80;;;;;;5074469;28;20302;-56
2023/08/13 08:35:58;;;;;;;2.97;2.67;;;29.80;45.30;;;;;;5072747;28;20923;-51
2023/08/13 08:38:24;;;;;;;4.83;3.43;;;29.90;43.50;;;;;;5073913;28;20450;-56
2023/08/13 08:40:52;;;;;;;5.30;3.43;;;29.90;45.00;;;;;;5073742;28;20197;-52
2023/08/13 08:43:18;;;;;;;4.60;3.00;;;29.90;43.40;;;;;;5074136;28;20184;-57
2023/08/13 08:45:45;;;;;;;5.30;4.10;;;29.80;42.30;;;;;;5073847;28;20561;-52
2023/08/13 08:48:12;;;;;;;3.30;2.90;;;29.80;43.60;;;;;;5073813;28;20403;-54
2023/08/13 08:50:39;;;;;;;3.80;3.40;;;29.90;43.30;;;;;;5073026;28;20437;-57
2023/08/13 08:53:05;;;;;;;4.17;3.37;;;30.00;43.00;;;;;;5073247;28;20413;-57
2023/08/13 08:55:31;;;;;;;3.40;2.93;;;30.00;44.10;;;;;;5073525;28;20434;-53
2023/08/13 08:57:57;;;;;;;4.40;3.43;;;30.10;45.00;;;;;;5073553;28;20461;-54
2023/08/13 09:00:23;;;;;;;3.57;3.27;;;30.10;45.60;;;;;;5073261;28;20179;-54
2023/08/13 09:02:50;;;;;;;5.40;2.53;;;30.10;45.50;;;;;;5073795;28;20504;-52
2023/08/13 09:05:16;;;;;;;4.00;3.00;;;30.10;44.90;;;;;;5073496;28;20188;-50
2023/08/13 09:07:42;;;;;;;3.37;3.00;;;30.10;44.50;;;;;;5073404;28;20467;-56
2023/08/13 09:10:09;;;;;;;3.87;2.97;;;30.10;44.60;;;;;;5073136;28;20942;-56
2023/08/13 09:12:41;;;;;;;3.20;2.90;;;30.10;44.20;;;;;;5073452;28;20427;-52
2023/08/13 09:15:09;;;;;;;3.40;2.93;;;30.00;43.60;;;;;;5073274;28;20406;-55
2023/08/13 09:17:36;;;;;;;3.93;3.17;;;30.00;44.10;;;;;;5073237;28;20917;-52
2023/08/13 09:20:22;;;;;;;6.20;3.20;;;29.90;44.10;;;;;;5073094;28;20414;-51
2023/08/13 09:22:48;;;;;;;3.70;2.60;;;29.80;44.90;;;;;;5073126;28;20401;-56
2023/08/13 09:25:17;;;;;;;3.60;3.30;;;29.70;45.00;;;;;;5073131;28;20464;-53
2023/08/13 09:27:44;;;;;;;4.00;2.87;;;29.80;45.00;;;;;;5072980;28;20409;-51
2023/08/13 09:30:12;;;;;;;4.50;3.30;;;29.70;44.80;;;;;;5072889;28;20408;-55
2023/08/13 09:32:38;;;;;;;3.70;2.83;;;29.70;44.70;;;;;;5072765;28;20431;-56
2023/08/13 09:35:04;;;;;;;4.10;3.03;;;29.60;44.70;;;;;;5072910;28;20905;-52
2023/08/13 09:37:30;;;;;;;4.37;2.43;;;29.70;45.40;;;;;;5072694;28;20413;-54
2023/08/13 09:39:56;;;;;;;3.13;2.80;;;29.80;45.50;;;;;;5072822;28;20473;-51
2023/08/13 09:42:26;;;;;;;4.17;3.37;;;29.90;44.40;;;;;;5072797;28;20426;-52
2023/08/13 09:44:55;;;;;;;3.47;3.17;;;29.90;44.90;;;;;;5073014;28;20403;-57
2023/08/13 09:47:25;;;;;;;3.53;3.23;;;30.00;44.20;;;;;;5072693;28;20407;-52
2023/08/13 09:49:58;;;;;;;3.77;3.30;;;30.00;44.40;;;;;;5072719;28;20402;-56
2023/08/13 09:52:27;;;;;;;3.20;2.90;;;30.00;44.50;;;;;;5072607;28;20465;-52
2023/08/13 09:55:01;;;;;;;7.10;3.57;;;30.00;45.20;;;;;;5072453;28;20435;-52
2023/08/13 09:57:30;;;;;;;3.57;2.73;;;30.10;44.70;;;;;;5072386;28;20451;-57
2023/08/13 09:59:56;;;;;;;3.47;3.07;;;30.10;45.10;;;;;;5072221;28;20456;-53
2023/08/13 10:02:23;;;;;;;3.40;3.10;;;30.30;43.40;;;;;;5072095;28;20419;-52
2023/08/13 10:04:52;;;;;;;6.90;3.60;;;30.30;43.90;;;;;;5072612;28;20406;-54
2023/08/13 10:07:19;;;;;;;3.47;2.97;;;30.40;43.80;;;;;;5072259;28;20440;-56
2023/08/13 10:09:46;;;;;;;4.30;3.17;;;30.60;42.70;;;;;;5072400;28;20480;-53
2023/08/13 10:12:12;;;;;;;3.60;3.10;;;30.80;42.30;;;;;;5072221;28;20439;-54
2023/08/13 10:14:38;;;;;;;3.80;3.30;;;30.90;42.60;;;;;;5072133;28;20413;-57
2023/08/13 10:17:06;;;;;;;3.60;3.30;;;31.00;43.90;;;;;;5072375;28;20503;-52
2023/08/13 10:19:38;;;;;;;3.33;3.03;;;31.00;43.50;;;;;;5071818;28;20514;-54
2023/08/13 10:22:04;;;;;;;3.33;3.03;;;31.10;42.40;;;;;;5072323;28;20629;-54
2023/08/13 10:24:30;;;;;;;3.70;2.97;;;31.30;42.90;;;;;;5072156;28;20428;-52
2023/08/13 10:27:00;;;;;;;3.93;2.90;;;31.30;43.00;;;;;;5072087;28;20431;-54
2023/08/13 10:29:40;;;;;;;2.70;2.40;;;31.40;43.20;;;;;;5071738;28;20407;-56
2023/08/13 10:32:16;;;;;;;2.93;2.63;;;31.50;42.60;;;;;;5072321;28;20430;-52
2023/08/13 10:34:47;;;;;;;3.10;2.80;;;31.60;42.10;;;;;;5072457;28;20414;-53
2023/08/13 10:37:23;;;;;;;2.80;2.47;;;31.60;42.30;;;;;;5071940;28;20411;-58
2023/08/13 10:39:55;;;;;;;3.73;2.33;;;31.70;43.00;;;;;;5070355;28;20999;-52
2023/08/13 10:42:27;;;;;;;3.70;3.07;;;31.80;42.10;;;;;;5071799;28;20426;-55
2023/08/13 10:45:00;;;;;;;3.60;2.40;;;31.80;41.80;;;;;;5071946;28;20770;-51
2023/08/13 10:47:47;;;;;;;2.83;2.60;;;31.80;41.30;;;;;;5071874;28;20537;-53
2023/08/13 10:50:22;;;;;;;2.00;1.80;;;31.90;41.00;;;;;;5071295;28;20407;-56
2023/08/13 10:52:55;;;;;;;3.27;2.97;;;31.90;41.60;;;;;;5071806;28;20394;-51
2023/08/13 10:55:24;;;;;;;2.70;2.50;;;31.90;40.60;;;;;;5071729;28;20431;-54
2023/08/13 10:57:52;;;;;;;11.03;2.60;;;31.90;40.60;;;;;;5071876;28;20407;-53
2023/08/13 11:00:22;;;;;;;2.47;2.27;;;31.90;41.00;;;;;;5071886;28;20410;-52
2023/08/13 11:03:14;;;;;;;2.90;2.60;;;31.90;41.20;;;;;;5071746;28;20408;-53
2023/08/13 11:05:40;;;;;;;5.43;2.40;;;32.00;40.60;;;;;;5071788;28;20891;-53
2023/08/13 11:08:07;;;;;;;4.73;2.70;;;31.90;39.90;;;;;;5071620;28;20419;-51
2023/08/13 11:10:33;;;;;;;2.50;2.30;;;31.80;39.70;;;;;;5071682;28;20407;-54
2023/08/13 11:13:00;;;;;;;2.50;2.30;;;31.90;40.20;;;;;;5071661;28;20409;-55
2023/08/13 11:15:29;;;;;;;5.43;2.90;;;31.90;38.60;;;;;;5073630;28;20414;-53
2023/08/13 11:17:55;;;;;;;3.07;2.53;;;32.00;40.00;;;;;;5075415;28;20501;-57
2023/08/13 11:20:21;;;;;;;3.20;2.43;;;32.10;40.20;;;;;;5075379;28;20494;-51
2023/08/13 11:22:47;;;;;;;3.43;3.10;;;32.10;40.30;;;;;;5074638;28;20437;-56
2023/08/13 11:25:14;;;;;;;3.20;2.90;;;32.10;40.60;;;;;;5075380;28;20406;-56
2023/08/13 11:27:41;;;;;;;3.57;2.47;;;32.10;40.00;;;;;;5075448;28;20410;-53
2023/08/13 11:30:10;;;;;;;3.43;2.37;;;32.00;39.70;;;;;;5075027;28;20406;-53
2023/08/13 11:32:39;;;;;;;3.03;2.50;;;32.10;40.40;;;;;;5075126;28;20476;-56
2023/08/13 11:35:09;;;;;;;2.80;2.60;;;32.10;40.90;;;;;;5075244;28;20407;-51
2023/08/13 11:37:38;;;;;;;2.63;2.33;;;32.10;39.70;;;;;;5075060;28;20918;-53
2023/08/13 11:40:05;;;;;;;3.20;2.90;;;32.10;39.70;;;;;;5075147;28;20460;-55
2023/08/13 11:42:32;;;;;;;4.17;3.80;;;32.10;39.60;;;;;;5074825;28;20419;-52
2023/08/13 11:44:59;;;;;;;3.70;3.03;;;32.00;40.40;;;;;;5075382;28;20417;-52
2023/08/13 11:47:26;;;;;;;3.23;2.93;;;31.90;39.80;;;;;;5075234;28;20391;-58
2023/08/13 11:49:54;;;;;;;4.97;3.40;;;31.70;39.60;;;;;;5074788;28;20399;-52
2023/08/13 11:52:21;;;;;;;2.60;2.40;;;31.60;40.50;;;;;;5074817;28;20419;-52
2023/08/13 11:54:48;;;;;;;3.90;3.13;;;31.60;40.50;;;;;;5074588;28;20426;-57
2023/08/13 11:57:18;;;;;;;4.33;3.60;;;31.70;41.20;;;;;;5075010;28;20909;-54
2023/08/13 11:59:47;;;;;;;3.00;2.50;;;31.70;40.90;;;;;;5074362;28;20969;-51
2023/08/13 12:02:15;;;;;;;4.13;2.33;;;31.70;39.50;;;;;;5074706;28;20911;-58
2023/08/13 12:04:46;;;;;;;3.20;2.90;;;31.70;41.20;;;;;;5074721;28;20489;-56
2023/08/13 12:07:11;;;;;;;3.87;2.93;;;31.90;40.90;;;;;;5074582;28;20388;-51
2023/08/13 12:09:37;;;;;;;4.67;2.77;;;32.00;40.60;;;;;;5074243;28;20403;-52
2023/08/13 12:12:03;;;;;;;3.93;2.63;;;32.10;40.80;;;;;;5074525;28;20200;-57
2023/08/13 12:14:29;;;;;;;2.90;2.20;;;32.20;39.10;;;;;;5074535;28;20465;-53
2023/08/13 12:16:56;;;;;;;4.77;2.70;;;32.30;40.00;;;;;;5074581;28;20409;-52
2023/08/13 12:19:22;;;;;;;2.77;2.53;;;32.50;38.10;;;;;;5074089;28;20537;-55
2023/08/13 12:21:48;;;;;;;3.00;2.70;;;32.70;37.60;;;;;;5074331;28;20419;-52
2023/08/13 12:24:14;;;;;;;3.23;2.93;;;32.90;36.80;;;;;;5074177;28;20411;-52
2023/08/13 12:26:40;;;;;;;3.33;2.63;;;33.10;37.80;;;;;;5074461;28;20459;-56
2023/08/13 12:29:06;;;;;;;4.90;2.57;;;33.20;37.70;;;;;;5073994;28;20548;-54
2023/08/13 12:31:32;;;;;;;2.40;2.20;;;33.40;37.90;;;;;;5074162;28;20434;-53
2023/08/13 12:33:58;;;;;;;2.87;2.60;;;33.30;37.40;;;;;;5074171;28;20168;-54
2023/08/13 12:36:24;;;;;;;3.57;2.60;;;33.20;37.10;;;;;;5074103;28;20410;-56
2023/08/13 12:38:50;;;;;;;3.47;2.63;;;33.10;37.40;;;;;;5073836;28;20246;-52
2023/08/13 12:41:16;;;;;;;3.33;3.03;;;32.90;37.10;;;;;;5074018;28;20474;-52
2023/08/13 12:43:42;;;;;;;4.10;2.77;;;32.90;36.70;;;;;;5074137;28;20403;-57
2023/08/13 12:46:08;;;;;;;2.40;2.10;;;32.90;36.70;;;;;;5074047;28;20984;-56